Time;durP1;ratioP1;P1;durP2;ratioP2;P2;SDS_P1;SDS_P2;PMS_P1;PMS_P2;Temp;Humidity;BMP_temperature;BMP_pressure;BME280_temperature;BME280_humidity;BME280_pressure;Samples;Min_cycle;Max_cycle;Signal;HPM_P1;HPM_P2
2023/03/07 00:00:44;;;;;;;;;52.50;42.50;;;;;6.77;69.88;99459.53;5025181;28;45509;-72
2023/03/07 00:03:14;;;;;;;;;56.00;45.50;;;;;6.83;70.21;99474.41;5025485;28;45600;-73
2023/03/07 00:05:40;;;;;;;;;54.25;41.25;;;;;6.60;70.06;99449.53;5023526;28;45615;-73
2023/03/07 00:08:06;;;;;;;;;47.25;39.75;;;;;6.10;69.80;99357.34;5042073;28;47196;-75
2023/03/07 00:10:32;;;;;;;;;47.25;40.75;;;;;6.75;69.72;99471.59;5019957;28;45514;-73
2023/03/07 00:12:57;;;;;;;;;43.75;39.25;;;;;6.55;69.91;99446.81;5021772;28;45308;-74
2023/03/07 00:15:23;;;;;;;;;50.00;41.25;;;;;6.49;70.21;99441.44;5021363;28;45514;-75
2023/03/07 00:17:49;;;;;;;;;46.75;38.50;;;;;6.49;70.19;99442.31;5023824;28;46249;-75
2023/03/07 00:20:14;;;;;;;;;56.00;44.50;;;;;6.60;70.18;99459.91;5026513;28;45459;-73
2023/03/07 00:22:41;;;;;;;;;47.75;41.25;;;;;6.62;70.17;99468.63;5029949;28;45451;-73
2023/03/07 00:25:07;;;;;;;;;51.50;40.75;;;;;6.51;70.56;99460.53;5023942;28;45585;-73
2023/03/07 00:27:35;;;;;;;;;56.00;42.25;;;;;6.35;70.84;99438.47;5023222;28;45549;-74
2023/03/07 00:30:03;;;;;;;;;42.00;37.75;;;;;6.25;70.87;99426.06;5035647;28;45544;-72
2023/03/07 00:32:29;;;;;;;;;48.00;41.00;;;;;6.25;71.56;99436.44;5026051;28;45393;-73
2023/03/07 00:34:56;;;;;;;;;43.50;38.50;;;;;6.08;71.74;99402.22;5029825;28;45593;-72
2023/03/07 00:44:09;;;;;;;;;49.00;42.75;;;;;6.32;71.22;99440.94;5028562;28;45361;-78
2023/03/07 00:53:59;;;;;;;;;46.00;39.50;;;;;6.29;72.26;99443.47;5021539;28;46788;-79
2023/03/07 00:56:27;;;;;;;;;47.25;37.25;;;;;6.02;72.62;99402.03;5015835;28;45405;-72
2023/03/07 00:59:36;;;;;;;;;46.75;39.75;;;;;6.13;72.25;99443.00;4994513;28;47405;-79
2023/03/07 01:09:19;;;;;;;;;41.00;36.75;;;;;6.17;71.28;99434.47;4999135;28;45552;-79
2023/03/07 01:12:38;;;;;;;;;39.25;34.25;;;;;6.17;71.23;99424.13;4998683;28;46727;-80
2023/03/07 01:18:37;;;;;;;;;43.50;39.75;;;;;6.14;71.68;99411.03;5005198;28;45639;-80
2023/03/07 01:21:14;;;;;;;;;41.00;38.00;;;;;6.12;71.62;99415.31;4975588;28;45500;-77
2023/03/07 01:23:49;;;;;;;;;47.75;40.50;;;;;6.10;71.36;99406.59;4979118;28;45552;-80
2023/03/07 01:26:31;;;;;;;;;39.00;35.75;;;;;6.08;71.60;99395.31;4983632;28;45579;-79
2023/03/07 01:29:09;;;;;;;;;43.25;37.25;;;;;6.01;71.47;99393.38;5001991;28;45503;-80
2023/03/07 01:32:28;;;;;;;;;50.00;38.00;;;;;5.97;71.65;99395.00;4981276;28;46394;-72
2023/03/07 01:35:18;;;;;;;;;42.75;35.25;;;;;5.98;71.56;99381.19;4979120;28;45431;-79
2023/03/07 01:41:39;;;;;;;;;45.50;38.25;;;;;5.96;71.20;99380.28;5003740;28;45383;-80
2023/03/07 01:57:50;;;;;;;;;44.75;39.50;;;;;5.71;71.51;99344.06;5006782;28;45498;-79
2023/03/07 02:00:55;;;;;;;;;43.50;38.00;;;;;5.80;71.50;99356.44;4999161;28;45529;-80
2023/03/07 02:03:32;;;;;;;;;44.50;39.00;;;;;5.77;72.08;99352.03;4997134;28;45611;-80
2023/03/07 02:06:06;;;;;;;;;41.75;37.75;;;;;5.73;72.16;99347.56;4996864;28;45552;-79
2023/03/07 02:08:34;;;;;;;;;46.75;39.25;;;;;5.70;72.01;99347.50;4997608;28;45311;-80
2023/03/07 02:11:00;;;;;;;;;34.75;32.50;;;;;5.64;71.62;99324.88;4996424;28;45609;-80
2023/03/07 02:16:57;;;;;;;;;47.50;41.00;;;;;5.71;71.56;99344.97;4996960;28;45320;-79
2023/03/07 02:19:41;;;;;;;;;47.25;37.25;;;;;5.71;71.31;99332.00;4997042;28;45703;-80
2023/03/07 02:22:10;;;;;;;;;49.00;39.00;;;;;5.71;71.94;99333.69;4997865;28;45504;-77
2023/03/07 02:31:56;;;;;;;;;47.50;40.00;;;;;5.65;72.40;99321.44;4997152;28;45458;-79
2023/03/07 02:34:28;;;;;;;;;52.50;40.25;;;;;5.65;71.99;99323.13;4995668;28;45596;-80
2023/03/07 02:36:58;;;;;;;;;42.25;38.25;;;;;5.66;72.20;99319.72;4996598;28;45799;-80
2023/03/07 02:49:38;;;;;;;;;41.50;34.50;;;;;5.78;72.40;99310.59;4996645;28;45780;-80
2023/03/07 02:52:04;;;;;;;;;48.00;38.25;;;;;5.81;72.29;99295.97;4996386;28;45521;-80
2023/03/07 03:08:05;;;;;;;;;45.50;34.25;;;;;6.29;71.31;99259.34;4982704;28;45387;-79
2023/03/07 03:10:31;;;;;;;;;38.25;30.75;;;;;6.31;71.19;99258.53;4996622;28;45824;-80
2023/03/07 03:12:57;;;;;;;;;38.00;34.25;;;;;6.33;70.92;99262.03;4996879;28;46467;-80
2023/03/07 03:15:22;;;;;;;;;38.25;34.25;;;;;6.37;70.94;99263.00;4996281;28;45464;-79
2023/03/07 03:17:48;;;;;;;;;36.25;32.50;;;;;6.38;70.87;99246.59;4996588;28;45371;-71
2023/03/07 03:20:15;;;;;;;;;33.75;30.50;;;;;6.33;70.81;99230.91;4996809;28;45507;-80
2023/03/07 03:22:41;;;;;;;;;25.75;24.75;;;;;6.49;70.78;99245.16;4996493;28;45577;-71
2023/03/07 03:25:09;;;;;;;;;37.00;30.00;;;;;6.54;70.68;99232.28;4996017;28;45390;-79
2023/03/07 03:27:36;;;;;;;;;25.25;24.50;;;;;6.62;70.96;99237.66;4995846;28;45442;-78
2023/03/07 03:33:23;;;;;;;;;32.25;29.25;;;;;6.80;70.52;99229.44;4994424;28;45672;-77
2023/03/07 03:35:49;;;;;;;;;25.50;22.25;;;;;6.85;70.91;99217.47;4995675;28;45485;-80
2023/03/07 03:38:15;;;;;;;;;17.25;17.25;;;;;7.09;70.66;99215.44;4996241;28;45548;-79
2023/03/07 03:40:40;;;;;;;;;14.25;13.00;;;;;7.32;70.41;99215.94;4996730;28;45306;-79
2023/03/07 03:43:06;;;;;;;;;9.75;8.00;;;;;7.52;70.04;99211.16;4996058;28;46185;-80
2023/03/07 03:45:32;;;;;;;;;9.00;8.25;;;;;7.63;70.17;99189.72;4994563;28;45484;-79
2023/03/07 03:47:57;;;;;;;;;9.00;7.75;;;;;8.01;69.72;99211.25;4995904;28;45920;-80
2023/03/07 03:50:23;;;;;;;;;7.25;6.25;;;;;8.25;69.45;99215.13;4998617;28;45484;-79
2023/03/07 03:52:48;;;;;;;;;5.50;5.50;;;;;8.45;68.54;99200.78;4999314;28;45745;-79
2023/03/07 03:55:23;;;;;;;;;4.00;3.00;;;;;8.73;67.85;99185.59;4998732;28;45497;-79
2023/03/07 03:57:48;;;;;;;;;7.75;6.75;;;;;8.92;67.35;99179.81;4999881;28;45469;-80
2023/03/07 04:00:15;;;;;;;;;7.50;7.00;;;;;9.10;66.98;99176.59;4999668;28;45562;-74
2023/03/07 04:06:17;;;;;;;;;6.00;5.75;;;;;9.51;65.58;99162.34;4983585;28;45324;-80
2023/03/07 04:08:43;;;;;;;;;7.00;6.00;;;;;9.63;65.19;99170.34;4999559;28;45505;-80
2023/03/07 04:11:09;;;;;;;;;7.25;6.50;;;;;9.72;64.89;99167.81;4998537;28;45416;-79
2023/03/07 04:13:36;;;;;;;;;8.00;5.00;;;;;9.82;63.96;99160.97;4998364;28;45906;-79
2023/03/07 04:29:29;;;;;;;;;6.25;6.25;;;;;10.06;63.25;99149.03;4998952;28;45419;-80
2023/03/07 04:31:55;;;;;;;;;8.25;7.75;;;;;10.15;63.41;99151.75;4998722;28;45605;-79
2023/03/07 04:34:20;;;;;;;;;7.00;5.00;;;;;10.17;63.08;99150.03;4999079;28;45436;-80
2023/03/07 04:36:46;;;;;;;;;8.00;7.00;;;;;10.16;63.27;99154.34;4997119;28;45393;-78
2023/03/07 04:39:11;;;;;;;;;4.75;4.00;;;;;10.15;63.41;99149.13;4999398;28;45480;-80
2023/03/07 04:41:37;;;;;;;;;5.00;5.00;;;;;10.15;63.07;99134.34;4998692;28;45282;-80
2023/03/07 04:50:51;;;;;;;;;3.75;3.00;;;;;10.28;62.50;99131.84;4999291;28;45244;-75
2023/03/07 04:53:19;;;;;;;;;5.00;4.00;;;;;10.30;62.22;99120.56;4998916;28;45460;-71
2023/03/07 04:55:45;;;;;;;;;4.00;4.00;;;;;10.31;62.11;99118.88;4999552;28;45351;-80
2023/03/07 04:58:12;;;;;;;;;3.00;3.00;;;;;10.33;62.18;99119.75;4997858;28;45951;-79
2023/03/07 05:00:44;;;;;;;;;3.50;3.50;;;;;10.34;62.18;99119.78;4997461;28;45296;-79
2023/03/07 05:03:11;;;;;;;;;4.00;4.00;;;;;10.35;61.87;99102.38;4996430;28;45494;-80
2023/03/07 05:05:37;;;;;;;;;4.00;4.00;;;;;10.46;61.84;99121.56;4998502;28;45430;-76
2023/03/07 05:08:04;;;;;;;;;6.50;5.00;;;;;10.46;61.70;99108.50;4998230;28;45340;-79
2023/03/07 05:20:18;;;;;;;;;4.00;4.00;;;;;10.66;60.88;99092.97;4976453;28;45364;-78
2023/03/07 05:22:43;;;;;;;;;3.00;3.00;;;;;10.62;60.56;99082.50;4976026;28;45362;-79
2023/03/07 05:25:09;;;;;;;;;4.00;4.00;;;;;10.73;60.69;99091.31;4953145;28;45395;-80
2023/03/07 05:27:34;;;;;;;;;4.00;3.00;;;;;10.77;60.71;99089.59;4967909;28;45729;-80
2023/03/07 05:30:00;;;;;;;;;2.25;2.25;;;;;10.80;60.29;99094.81;4975955;28;46103;-80
2023/03/07 05:32:25;;;;;;;;;1.00;1.00;;;;;10.79;60.10;99088.72;4975946;28;45574;-79
2023/03/07 05:41:34;;;;;;;;;2.75;2.25;;;;;10.65;59.92;99072.09;4975667;28;45769;-79
2023/03/07 05:43:59;;;;;;;;;3.00;3.00;;;;;10.69;59.89;99073.88;4970480;28;45542;-79
2023/03/07 05:46:25;;;;;;;;;3.50;3.25;;;;;10.70;59.94;99083.44;4997683;28;45775;-80
2023/03/07 05:48:51;;;;;;;;;3.50;3.00;;;;;10.59;59.91;99064.22;4997349;28;46128;-79
2023/03/07 05:51:16;;;;;;;;;3.00;3.00;;;;;10.65;59.98;99078.19;4991571;28;46428;-80
2023/03/07 05:53:42;;;;;;;;;3.75;3.50;;;;;10.62;60.05;99078.16;4986147;28;45565;-80
2023/03/07 05:56:08;;;;;;;;;1.75;1.75;;;;;10.60;60.15;99071.19;4998032;28;45559;-78
2023/03/07 05:58:34;;;;;;;;;4.00;3.00;;;;;10.61;60.01;99070.34;4997766;28;45318;-80
2023/03/07 06:01:02;;;;;;;;;2.75;2.00;;;;;10.58;60.02;99060.72;4997809;28;45901;-79
2023/03/07 06:03:28;;;;;;;;;2.25;2.00;;;;;10.48;59.89;99044.13;4997268;28;45643;-80
2023/03/07 06:15:59;;;;;;;;;9.00;8.00;;;;;10.44;59.71;99031.06;4988206;28;45464;-80
2023/03/07 06:18:25;;;;;;;;;15.00;9.00;;;;;10.60;60.05;99052.91;4996997;28;45492;-80
2023/03/07 06:21:00;;;;;;;;;8.25;7.50;;;;;10.63;59.75;99060.78;4997287;28;45446;-80
2023/03/07 06:23:28;;;;;;;;;18.75;17.00;;;;;10.67;59.70;99060.78;4997220;28;46045;-79
2023/03/07 06:25:53;;;;;;;;;11.75;9.75;;;;;10.72;59.53;99059.09;4996804;28;45435;-79
2023/03/07 06:31:50;;;;;;;;;2.50;1.50;;;;;10.80;59.25;99047.78;4997170;28;45701;-80
2023/03/07 06:40:59;;;;;;;;;23.25;20.25;;;;;10.95;58.76;99034.81;4988940;28;45821;-75
2023/03/07 07:37:43;;;;;;;;;2.25;2.00;;;;;12.48;55.72;99021.03;5000749;28;45263;-79
2023/03/07 07:43:30;;;;;;;;;3.00;3.00;;;;;12.62;55.37;99021.00;5003028;28;45331;-78
2023/03/07 07:49:36;;;;;;;;;2.00;1.25;;;;;12.82;55.42;99025.31;5011588;28;45320;-79
2023/03/07 07:52:02;;;;;;;;;3.00;2.50;;;;;12.93;55.33;99008.66;5011896;28;46056;-71
2023/03/07 07:58:32;;;;;;;;;1.33;1.00;;;;;13.23;54.73;99022.50;5021989;28;45427;-79
2023/03/07 08:00:59;;;;;;;;;2.00;1.00;;;;;13.35;54.00;99015.47;5005787;28;45351;-77
2023/03/07 08:06:46;;;;;;;;;1.00;1.00;;;;;13.61;53.97;99026.69;5002810;28;46199;-74
2023/03/07 08:12:55;;;;;;;;;1.00;1.00;;;;;13.89;53.94;99023.88;5003699;28;45445;-74
2023/03/07 08:19:01;;;;;;;;;2.00;2.00;;;;;14.22;53.46;99027.94;5005625;28;45427;-75
2023/03/07 08:21:27;;;;;;;;;2.67;2.00;;;;;14.34;53.18;99029.56;4998960;28;45315;-75
2023/03/07 08:23:54;;;;;;;;;2.33;2.33;;;;;14.39;52.71;99022.53;4999539;28;45421;-75
2023/03/07 08:26:20;;;;;;;;;1.00;1.00;;;;;14.48;52.44;99030.34;4998469;28;45562;-75
2023/03/07 08:28:46;;;;;;;;;1.00;1.00;;;;;14.59;51.99;99011.84;4999134;28;45329;-75
2023/03/07 08:31:18;;;;;;;;;1.00;1.00;;;;;14.86;51.27;99030.81;4998801;28;45379;-75
2023/03/07 08:33:46;;;;;;;;;3.00;3.00;;;;;15.06;51.13;99033.19;4998646;28;45652;-76
2023/03/07 08:36:12;;;;;;;;;4.00;4.00;;;;;15.22;50.68;99033.88;4996721;28;45502;-75
2023/03/07 08:38:37;;;;;;;;;3.00;3.00;;;;;15.30;49.76;99027.63;4998104;28;45473;-76
2023/03/07 08:41:05;;;;;;;;;1.67;1.00;;;;;15.46;49.43;99036.19;4998515;28;45478;-75
2023/03/07 08:43:32;;;;;;;;;2.00;1.00;;;;;15.55;49.01;99036.94;4998233;28;45483;-75
2023/03/07 08:45:58;;;;;;;;;1.00;1.00;;;;;15.59;49.04;99028.97;4998149;28;46216;-75
2023/03/07 08:48:25;;;;;;;;;2.00;2.00;;;;;15.72;48.86;99032.31;4998795;28;45678;-76
2023/03/07 08:50:51;;;;;;;;;1.00;1.00;;;;;15.70;48.76;99031.47;4998286;28;45516;-75
2023/03/07 08:53:16;;;;;;;;;1.33;1.33;;;;;15.79;48.35;99044.50;4998613;28;45550;-75
2023/03/07 08:55:42;;;;;;;;;1.33;1.33;;;;;15.91;48.21;99046.06;4997602;28;45773;-75
2023/03/07 08:58:08;;;;;;;;;2.00;2.00;;;;;16.09;47.61;99053.72;4997970;28;45529;-76
2023/03/07 09:00:35;;;;;;;;;3.00;3.00;;;;;16.25;47.35;99056.97;4998208;28;45327;-76
2023/03/07 09:03:00;;;;;;;;;2.00;2.00;;;;;16.32;47.01;99048.94;4997813;28;45586;-75
2023/03/07 09:05:28;;;;;;;;;3.00;2.00;;;;;16.49;46.83;99055.66;4998403;28;45929;-76
2023/03/07 09:07:55;;;;;;;;;4.00;3.67;;;;;16.58;47.14;99059.00;4998321;28;45379;-76
2023/03/07 09:10:21;;;;;;;;;2.00;2.00;;;;;16.62;46.66;99061.56;4998245;28;45450;-76
2023/03/07 09:12:50;;;;;;;;;3.33;3.00;;;;;16.58;46.11;99074.84;4998116;28;45347;-76
2023/03/07 09:15:16;;;;;;;;;2.00;2.00;;;;;16.53;46.43;99071.41;4997948;28;46177;-76
2023/03/07 09:17:42;;;;;;;;;6.33;6.33;;;;;16.42;46.30;99077.72;5013144;28;45428;-73
2023/03/07 09:20:08;;;;;;;;;4.00;4.00;;;;;16.30;46.81;99076.16;4996496;28;45771;-73
2023/03/07 09:22:34;;;;;;;;;5.67;4.67;;;;;16.16;47.02;99069.41;4998195;28;45537;-76
2023/03/07 09:24:59;;;;;;;;;4.00;3.00;;;;;16.24;46.91;99080.69;4996738;28;45497;-76
2023/03/07 09:27:25;;;;;;;;;2.00;2.00;;;;;16.17;47.00;99090.44;4998028;28;45536;-76
2023/03/07 09:29:51;;;;;;;;;5.00;5.00;;;;;16.14;47.08;99081.75;4997265;28;46799;-75
2023/03/07 09:32:16;;;;;;;;;8.67;6.33;;;;;16.17;47.59;99074.63;4997370;28;45339;-75
2023/03/07 09:34:42;;;;;;;;;2.67;2.67;;;;;16.21;47.33;99080.72;4997599;28;45870;-75
2023/03/07 09:37:07;;;;;;;;;4.00;4.00;;;;;16.22;47.33;99079.84;4996818;28;45445;-76
2023/03/07 09:39:33;;;;;;;;;3.00;2.00;;;;;16.31;47.20;99084.94;4997702;28;45500;-75
2023/03/07 09:42:35;;;;;;;;;5.33;4.00;;;;;16.33;47.08;99082.28;4998425;28;45232;-77
2023/03/07 09:45:25;;;;;;;;;4.33;4.00;;;;;16.30;47.21;99091.13;4995298;28;46299;-76
2023/03/07 09:48:10;;;;;;;;;4.00;3.00;;;;;16.27;47.30;99099.06;4996638;28;45446;-74
2023/03/07 09:50:51;;;;;;;;;4.00;4.00;;;;;16.22;47.89;99093.03;4997004;28;45435;-76
2023/03/07 09:53:40;;;;;;;;;5.67;4.00;;;;;16.13;47.60;99090.53;4997351;28;45948;-76
2023/03/07 09:56:39;;;;;;;;;3.00;3.00;;;;;16.06;47.82;99087.97;4997546;28;46331;-76
2023/03/07 09:59:23;;;;;;;;;4.00;3.67;;;;;15.99;48.04;99090.72;4985756;28;45339;-76
2023/03/07 10:02:04;;;;;;;;;4.00;4.00;;;;;15.95;48.01;99082.00;4996994;28;45377;-76
2023/03/07 10:04:45;;;;;;;;;3.67;3.00;;;;;15.93;48.34;99086.44;4997332;28;45247;-75
2023/03/07 10:07:14;;;;;;;;;3.00;3.00;;;;;15.87;48.61;99090.00;4997122;28;45560;-76
2023/03/07 10:09:40;;;;;;;;;4.00;4.00;;;;;15.81;48.66;99102.41;4996471;28;45418;-76
2023/03/07 10:12:25;;;;;;;;;4.00;3.67;;;;;15.79;48.83;99094.53;4996468;28;45464;-76
2023/03/07 10:15:02;;;;;;;;;4.00;4.00;;;;;15.77;48.96;99100.72;4997325;28;45569;-75
2023/03/07 10:18:08;;;;;;;;;4.75;3.75;;;;;15.73;49.50;99105.16;4997193;28;45466;-76
2023/03/07 10:21:07;;;;;;;;;3.00;3.00;;;;;15.70;49.55;99099.91;4997172;28;45418;-76
2023/03/07 10:24:00;;;;;;;;;4.00;3.00;;;;;15.61;50.18;99113.19;4996797;28;46313;-75
2023/03/07 10:26:33;;;;;;;;;4.67;3.00;;;;;15.57;50.16;99100.97;4997011;28;45585;-75
2023/03/07 10:29:01;;;;;;;;;3.33;2.67;;;;;15.55;50.42;99106.25;4997319;28;45544;-76
2023/03/07 10:31:38;;;;;;;;;7.00;6.00;;;;;15.56;50.56;99108.00;4997112;28;45267;-75
2023/03/07 10:34:28;;;;;;;;;3.00;2.00;;;;;15.56;50.40;99101.84;4997064;28;45277;-75
2023/03/07 10:37:11;;;;;;;;;2.00;2.00;;;;;15.57;50.21;99096.56;4991387;28;45523;-75
2023/03/07 10:39:51;;;;;;;;;4.00;3.00;;;;;15.74;50.17;99095.47;4996092;28;45972;-76
2023/03/07 10:42:20;;;;;;;;;9.00;7.00;;;;;15.77;49.78;99084.91;4996267;28;45551;-71
2023/03/07 10:44:47;;;;;;;;;4.00;3.33;;;;;15.97;49.70;99097.78;4996283;28;45458;-71
2023/03/07 10:47:25;;;;;;;;;4.33;4.00;;;;;16.17;49.39;99110.66;4996630;28;45534;-71
2023/03/07 10:50:07;;;;;;;;;5.00;5.00;;;;;16.38;49.06;99107.66;4981944;28;45492;-72
2023/03/07 10:52:39;;;;;;;;;4.00;4.00;;;;;16.58;48.67;99107.31;5010946;28;45788;-71
2023/03/07 10:55:35;;;;;;;;;3.67;3.67;;;;;16.75;48.28;99104.41;4995799;28;45577;-72
2023/03/07 10:58:23;;;;;;;;;2.00;2.00;;;;;16.97;47.76;99104.91;4992347;28;45708;-71
2023/03/07 11:01:00;;;;;;;;;2.00;2.00;;;;;17.13;47.40;99105.47;4991702;28;46398;-76
2023/03/07 11:03:31;;;;;;;;;3.33;3.00;;;;;17.38;47.36;99104.97;4989634;28;45536;-75
2023/03/07 11:05:57;;;;;;;;;2.00;2.00;;;;;17.45;46.58;99102.16;4995916;28;45343;-75
2023/03/07 11:08:31;;;;;;;;;2.00;2.00;;;;;17.57;46.67;99106.31;4996536;28;45690;-75
2023/03/07 11:10:59;;;;;;;;;2.00;2.00;;;;;17.69;46.30;99102.53;4996495;28;46253;-76
2023/03/07 11:13:26;;;;;;;;;2.00;2.00;;;;;17.86;46.20;99094.25;4996698;28;45354;-76
2023/03/07 11:16:08;;;;;;;;;2.33;2.33;;;;;18.14;45.72;99096.25;4995077;28;45858;-75
2023/03/07 11:18:40;;;;;;;;;3.00;2.00;;;;;18.17;45.30;99098.84;4996214;28;45429;-76
2023/03/07 11:21:27;;;;;;;;;1.33;1.33;;;;;18.05;45.21;99122.00;4996027;28;46120;-76
2023/03/07 11:27:37;;;;;;;;;7.00;6.00;;;;;17.72;45.86;99130.66;4995381;28;45586;-76
2023/03/07 11:30:27;;;;;;;;;5.00;5.00;;;;;17.60;45.99;99137.94;4994615;28;45490;-77
2023/03/07 11:33:08;;;;;;;;;3.00;3.00;;;;;17.48;46.05;99141.69;4995364;28;45363;-76
2023/03/07 11:36:05;;;;;;;;;3.00;3.00;;;;;17.32;46.36;99140.28;4996117;28;45225;-76
2023/03/07 11:38:52;;;;;;;;;3.67;3.67;;;;;17.18;46.96;99153.72;4978014;28;45403;-75
2023/03/07 11:41:28;;;;;;;;;3.00;3.00;;;;;17.07;47.01;99155.72;4996561;28;45560;-75
2023/03/07 11:44:25;;;;;;;;;4.00;3.00;;;;;16.98;47.25;99164.66;4996118;28;45561;-76
2023/03/07 11:46:59;;;;;;;;;2.00;2.00;;;;;16.85;47.27;99169.31;4996671;28;45387;-76
2023/03/07 11:49:57;;;;;;;;;3.00;3.00;;;;;16.79;47.66;99181.66;4995757;28;45490;-74
2023/03/07 11:52:47;;;;;;;;;4.67;4.67;;;;;16.76;47.91;99201.06;4985400;28;45517;-76
2023/03/07 11:55:34;;;;;;;;;3.00;3.00;;;;;16.68;48.86;99222.28;4995648;28;46222;-72
2023/03/07 11:58:11;;;;;;;;;2.33;2.33;;;;;16.72;49.04;99240.72;4983516;28;45544;-76
2023/03/07 12:00:48;;;;;;;;;7.00;6.33;;;;;16.56;52.40;99263.81;4995798;28;45381;-76
2023/03/07 12:03:42;;;;;;;;;8.00;7.33;;;;;16.40;53.60;99281.59;4995223;28;45601;-75
2023/03/07 12:06:11;;;;;;;;;8.00;8.00;;;;;16.28;55.78;99280.00;4993862;28;46417;-76
2023/03/07 12:09:22;;;;;;;;;8.50;8.00;;;;;16.16;55.64;99299.47;4995804;28;45291;-75
2023/03/07 12:12:22;;;;;;;;;7.00;7.00;;;;;16.04;56.17;99320.72;4976739;28;45596;-75
2023/03/07 12:15:04;;;;;;;;;7.33;7.33;;;;;15.67;58.46;99337.72;4976882;28;45466;-76
2023/03/07 12:17:50;;;;;;;;;10.00;9.00;;;;;15.51;58.83;99341.41;4985740;28;46178;-76
2023/03/07 12:20:24;;;;;;;;;9.50;8.50;;;;;15.38;59.10;99360.81;4998976;28;45348;-76
2023/03/07 12:23:21;;;;;;;;;13.75;12.00;;;;;15.18;59.85;99385.56;4998664;28;45582;-78
2023/03/07 12:26:18;;;;;;;;;15.75;15.00;;;;;14.94;60.81;99396.22;4998885;28;45749;-75
2023/03/07 12:28:59;;;;;;;;;20.00;19.25;;;;;14.73;61.75;99376.22;4998464;28;45334;-77
2023/03/07 12:31:39;;;;;;;;;21.50;19.00;;;;;14.44;63.14;99387.69;4997251;28;45465;-75
2023/03/07 12:34:13;;;;;;;;;22.00;21.00;;;;;14.40;63.07;99431.50;4998478;28;45516;-75
2023/03/07 12:36:57;;;;;;;;;20.00;18.50;;;;;14.23;63.19;99439.44;4998816;28;45276;-76
2023/03/07 12:39:29;;;;;;;;;22.25;21.00;;;;;14.00;64.60;99434.22;4995752;28;45185;-76
2023/03/07 12:42:36;;;;;;;;;20.00;19.00;;;;;13.80;64.90;99446.50;4998228;28;45493;-76
2023/03/07 12:45:15;;;;;;;;;25.00;23.00;;;;;13.77;64.64;99460.53;4961776;28;45438;-77
2023/03/07 12:47:40;;;;;;;;;25.50;24.00;;;;;13.65;64.63;99487.63;4996408;28;45365;-77
2023/03/07 12:50:27;;;;;;;;;41.50;36.00;;;;;13.49;65.81;99480.63;4998547;28;45402;-76
2023/03/07 12:53:04;;;;;;;;;25.75;24.75;;;;;13.21;67.33;99491.06;4998364;28;45522;-77
2023/03/07 12:55:44;;;;;;;;;24.00;22.00;;;;;13.16;66.61;99481.41;4998754;28;45382;-75
2023/03/07 12:58:34;;;;;;;;;24.50;23.25;;;;;13.16;67.06;99507.63;4998455;28;45230;-75
2023/03/07 13:01:17;;;;;;;;;23.50;20.00;;;;;13.07;67.27;99498.88;4998442;28;45533;-75
2023/03/07 13:04:00;;;;;;;;;19.25;19.25;;;;;13.06;67.15;99525.94;4997894;28;45425;-75
2023/03/07 13:06:27;;;;;;;;;21.00;18.00;;;;;13.05;67.53;99526.84;4998066;28;45528;-75
2023/03/07 13:08:57;;;;;;;;;18.75;16.50;;;;;13.00;68.81;99528.56;4997741;28;45439;-75
2023/03/07 13:11:25;;;;;;;;;19.25;18.75;;;;;12.90;69.13;99529.41;4997938;28;46083;-75
2023/03/07 13:13:58;;;;;;;;;19.50;18.25;;;;;12.87;67.86;99522.41;4997622;28;45480;-71
2023/03/07 13:16:40;;;;;;;;;16.00;14.50;;;;;12.90;67.52;99551.22;4982980;28;45458;-75
2023/03/07 13:19:35;;;;;;;;;18.50;17.50;;;;;12.82;68.53;99559.94;4998183;28;45378;-75
2023/03/07 13:22:20;;;;;;;;;23.50;19.00;;;;;12.74;68.28;99552.91;4988005;28;46025;-75
2023/03/07 13:24:51;;;;;;;;;18.25;16.25;;;;;12.72;67.88;99556.38;4996833;28;46476;-75
2023/03/07 13:27:43;;;;;;;;;17.00;14.50;;;;;12.63;68.24;99572.06;4997089;28;45458;-75
2023/03/07 13:30:09;;;;;;;;;17.00;16.00;;;;;12.65;68.86;99573.84;4997906;28;45386;-75
2023/03/07 13:32:49;;;;;;;;;15.75;15.75;;;;;12.59;68.98;99576.38;4997154;28;45992;-76
2023/03/07 13:35:27;;;;;;;;;19.50;17.75;;;;;12.63;68.91;99579.91;4997778;28;45717;-76
2023/03/07 13:38:21;;;;;;;;;22.25;20.00;;;;;12.69;67.98;99595.66;4982464;28;45545;-77
2023/03/07 13:40:57;;;;;;;;;16.25;15.75;;;;;12.63;68.00;99587.78;4997655;28;45573;-77
2023/03/07 13:43:22;;;;;;;;;17.00;15.00;;;;;12.67;68.37;99598.31;4997126;28;45545;-73
2023/03/07 13:45:53;;;;;;;;;16.00;14.75;;;;;12.62;68.22;99604.38;4997278;28;45347;-70
2023/03/07 13:48:19;;;;;;;;;18.00;17.25;;;;;12.67;68.37;99623.59;4997716;28;45398;-70
2023/03/07 13:50:44;;;;;;;;;14.25;11.75;;;;;12.74;68.19;99631.53;4997084;28;45605;-70
2023/03/07 13:53:38;;;;;;;;;9.75;9.75;;;;;12.65;68.59;99631.47;4995873;28;45493;-71
2023/03/07 13:56:16;;;;;;;;;9.25;8.00;;;;;12.78;68.38;99626.31;4990774;28;45777;-71
2023/03/07 13:58:56;;;;;;;;;10.25;10.00;;;;;12.74;68.27;99628.03;4997392;28;45516;-75
2023/03/07 14:01:31;;;;;;;;;12.00;10.00;;;;;12.76;67.00;99628.91;4997745;28;45411;-74
2023/03/07 14:04:15;;;;;;;;;14.75;14.00;;;;;12.76;67.26;99617.56;4997575;28;46129;-75
2023/03/07 14:06:46;;;;;;;;;19.25;18.75;;;;;12.74;67.31;99615.78;4996672;28;45535;-75
2023/03/07 14:09:17;;;;;;;;;19.75;17.25;;;;;12.91;66.78;99613.28;4997106;28;45570;-75
2023/03/07 14:11:54;;;;;;;;;38.75;33.50;;;;;13.04;66.72;99606.34;4992537;28;45447;-75
2023/03/07 14:14:54;;;;;;;;;17.00;16.50;;;;;13.06;66.53;99614.22;5006751;28;47783;-70
2023/03/07 14:17:35;;;;;;;;;9.50;9.50;;;;;12.96;68.00;99617.69;4996943;28;45632;-70
2023/03/07 14:20:12;;;;;;;;;6.75;6.00;;;;;12.91;67.06;99622.88;4997541;28;45645;-70
2023/03/07 14:22:53;;;;;;;;;8.25;5.25;;;;;12.92;67.00;99619.41;4996861;28;45328;-70
2023/03/07 14:25:40;;;;;;;;;18.00;15.75;;;;;12.91;67.33;99629.00;4996299;28;46383;-70
2023/03/07 14:28:22;;;;;;;;;7.00;6.50;;;;;12.86;67.38;99608.88;4996817;28;45448;-71
2023/03/07 14:30:57;;;;;;;;;20.25;17.00;;;;;12.94;67.63;99617.66;4982142;28;45341;-70
2023/03/07 14:33:35;;;;;;;;;6.50;6.50;;;;;12.99;67.12;99615.97;4996055;28;45355;-70
2023/03/07 14:36:04;;;;;;;;;29.50;28.75;;;;;13.00;67.12;99598.47;4996994;28;45534;-72
2023/03/07 14:38:31;;;;;;;;;22.25;18.00;;;;;13.00;67.31;99601.97;4981543;28;45724;-71
2023/03/07 14:41:15;;;;;;;;;15.25;14.50;;;;;12.97;67.19;99598.44;5012080;28;45501;-72
2023/03/07 14:44:07;;;;;;;;;8.75;8.75;;;;;12.93;67.37;99592.31;4995260;28;45485;-74
2023/03/07 14:46:55;;;;;;;;;19.25;18.00;;;;;12.93;67.22;99582.72;4995749;28;45450;-73
2023/03/07 14:49:54;;;;;;;;;16.25;15.75;;;;;12.90;67.08;99589.69;5001469;28;45853;-76
2023/03/07 14:52:20;;;;;;;;;21.00;19.25;;;;;12.84;66.27;99577.41;4993442;28;45681;-75
2023/03/07 14:54:51;;;;;;;;;14.00;11.50;;;;;12.83;66.31;99583.53;4995599;28;45527;-75
2023/03/07 14:57:32;;;;;;;;;7.25;5.50;;;;;12.76;66.06;99579.13;4993249;28;46200;-77
2023/03/07 15:00:11;;;;;;;;;6.00;6.00;;;;;12.80;66.56;99580.88;5005623;28;45412;-74
2023/03/07 15:02:48;;;;;;;;;10.25;9.25;;;;;12.80;66.17;99583.50;4991701;28;45618;-76
2023/03/07 15:05:20;;;;;;;;;14.50;13.00;;;;;12.86;66.39;99582.66;4996825;28;45553;-76
2023/03/07 15:07:45;;;;;;;;;6.00;6.00;;;;;12.88;66.28;99570.44;4996313;28;45351;-76
2023/03/07 15:10:18;;;;;;;;;12.75;11.75;;;;;13.06;66.29;99586.25;4995901;28;45896;-73
2023/03/07 15:12:50;;;;;;;;;12.00;12.00;;;;;12.98;66.13;99568.75;4992990;28;45553;-80
2023/03/07 15:15:34;;;;;;;;;20.00;20.00;;;;;13.17;65.97;99585.41;4995869;28;45525;-79
2023/03/07 15:18:13;;;;;;;;;12.00;9.25;;;;;13.23;65.76;99581.09;5004235;28;46404;-80
2023/03/07 15:20:39;;;;;;;;;8.00;8.00;;;;;13.27;65.67;99575.00;4993344;28;45423;-80
2023/03/07 15:23:07;;;;;;;;;11.50;11.25;;;;;13.32;65.38;99567.16;5019530;28;45423;-80
2023/03/07 15:25:37;;;;;;;;;8.50;8.50;;;;;13.35;64.79;99561.03;4994812;28;45846;-78
2023/03/07 15:28:17;;;;;;;;;6.75;6.75;;;;;13.33;64.92;99554.06;4994577;28;45490;-78
2023/03/07 15:30:50;;;;;;;;;23.50;20.25;;;;;13.00;64.95;99506.72;4994477;28;45661;-80
2023/03/07 15:33:18;;;;;;;;;7.25;6.75;;;;;13.29;64.58;99562.78;4995630;28;45530;-80
2023/03/07 15:35:45;;;;;;;;;10.25;9.00;;;;;13.22;65.10;99553.09;4996109;28;45433;-77
2023/03/07 15:38:21;;;;;;;;;23.75;22.25;;;;;13.32;65.04;99560.16;4995579;28;45730;-80
2023/03/07 15:40:47;;;;;;;;;10.00;10.00;;;;;13.37;64.76;99559.28;4994396;28;45372;-80